createdAt,value
2019-04-28T00:00:41.237Z,48.93
2019-04-28T00:01:41.172Z,48.93
2019-04-28T00:02:40.893Z,48.93
2019-04-28T00:03:41.991Z,48.93
2019-04-28T00:04:41.541Z,48.93
2019-04-28T00:05:41.532Z,48.93
2019-04-28T00:06:41.744Z,48.93
2019-04-28T00:07:41.178Z,48.93
2019-04-28T00:08:42.735Z,48.83
2019-04-28T00:09:41.515Z,48.83
2019-04-28T00:10:41.840Z,48.83
2019-04-28T00:11:41.745Z,48.83
2019-04-28T00:12:41.269Z,48.83
2019-04-28T00:13:41.800Z,48.83
2019-04-28T00:14:41.787Z,48.83
2019-04-28T00:15:41.687Z,48.83
2019-04-28T00:16:41.275Z,48.83
2019-04-28T00:17:41.970Z,48.83
2019-04-28T00:18:41.576Z,48.83
2019-04-28T00:19:40.976Z,48.83
2019-04-28T00:20:40.946Z,48.83
2019-04-28T00:21:41.459Z,48.83
2019-04-28T00:22:41.922Z,48.83
2019-04-28T00:23:42.123Z,48.72
2019-04-28T00:24:41.639Z,48.72
2019-04-28T00:25:41.076Z,48.72
2019-04-28T00:26:41.072Z,48.72
2019-04-28T00:27:41.530Z,48.72
2019-04-28T00:28:41.646Z,48.72
2019-04-28T00:29:45.586Z,48.72
2019-04-28T00:30:41.772Z,48.72
2019-04-28T00:31:41.359Z,48.72
2019-04-28T00:32:41.759Z,48.72
2019-04-28T00:33:41.026Z,48.72
2019-04-28T00:34:41.266Z,48.72
2019-04-28T00:35:41.843Z,48.72
2019-04-28T00:36:41.230Z,48.72
2019-04-28T00:37:41.775Z,48.72
2019-04-28T00:38:41.481Z,48.72
2019-04-28T00:39:40.962Z,48.72
2019-04-28T00:40:41.356Z,48.63
2019-04-28T00:41:42.053Z,48.63
2019-04-28T00:42:41.413Z,48.63
2019-04-28T00:43:41.790Z,48.63
2019-04-28T00:44:41.598Z,48.63
2019-04-28T00:45:41.353Z,48.63
2019-04-28T00:46:41.084Z,48.63
2019-04-28T00:47:40.878Z,48.63
2019-04-28T00:48:40.907Z,48.63
2019-04-28T00:49:41.990Z,48.63
2019-04-28T00:50:41.376Z,48.63
2019-04-28T00:51:41.450Z,48.52
2019-04-28T00:52:41.872Z,48.52
2019-04-28T00:53:40.844Z,48.52
2019-04-28T00:54:41.944Z,48.52
2019-04-28T00:55:41.638Z,48.52
2019-04-28T00:56:41.851Z,48.52
2019-04-28T00:57:40.956Z,48.52
2019-04-28T00:58:41.727Z,48.52
2019-04-28T00:59:52.213Z,48.52
2019-04-28T01:00:41.490Z,48.52
2019-04-28T01:01:40.737Z,48.52
2019-04-28T01:02:41.281Z,48.52
2019-04-28T01:03:42.082Z,48.52
2019-04-28T01:04:41.340Z,48.52
2019-04-28T01:05:41.132Z,48.52
2019-04-28T01:06:40.113Z,48.52
2019-04-28T01:07:41.396Z,48.52
2019-04-28T01:08:41.886Z,48.43
2019-04-28T01:09:41.579Z,48.43
2019-04-28T01:10:41.062Z,48.43
2019-04-28T01:11:41.447Z,48.43
2019-04-28T01:12:41.141Z,48.43
2019-04-28T01:13:41.972Z,48.43
2019-04-28T01:14:40.982Z,48.43
2019-04-28T01:15:40.015Z,48.43
2019-04-28T01:16:40.186Z,48.43
2019-04-28T01:17:39.987Z,48.43
2019-04-28T01:18:40.568Z,48.43
2019-04-28T01:19:39.972Z,48.43
2019-04-28T01:20:39.958Z,48.43
2019-04-28T01:21:41.564Z,48.32
2019-04-28T01:22:40.225Z,48.43
2019-04-28T01:23:40.331Z,48.32
2019-04-28T01:24:39.946Z,48.43
2019-04-28T01:25:40.184Z,48.43
2019-04-28T01:26:41.645Z,48.32
2019-04-28T01:27:40.324Z,48.32
2019-04-28T01:28:39.946Z,48.32
2019-04-28T01:29:40.380Z,48.32
2019-04-28T01:30:40.263Z,48.32
2019-04-28T01:31:39.842Z,48.32
2019-04-28T01:32:40.027Z,48.32
2019-04-28T01:33:40.636Z,48.32
2019-04-28T01:34:40.095Z,48.32
2019-04-28T01:35:39.840Z,48.32
2019-04-28T01:36:40.048Z,48.32
2019-04-28T01:37:40.711Z,48.32
2019-04-28T01:38:40.307Z,48.22
2019-04-28T01:39:41.225Z,48.22
2019-04-28T01:40:41.377Z,48.22
2019-04-28T01:41:39.932Z,48.22
2019-04-28T01:42:41.250Z,48.22
2019-04-28T01:43:41.660Z,48.22
2019-04-28T01:44:39.718Z,48.22
2019-04-28T01:45:41.522Z,48.22
2019-04-28T01:46:39.967Z,48.22
2019-04-28T01:47:40.451Z,48.22
2019-04-28T01:48:39.910Z,48.22
2019-04-28T01:49:40.566Z,48.22
2019-04-28T01:50:40.089Z,48.22
2019-04-28T01:51:41.588Z,48.12
2019-04-28T01:52:40.088Z,48.12
2019-04-28T01:53:39.710Z,48.22
2019-04-28T01:54:40.244Z,48.12
2019-04-28T01:55:41.161Z,48.12
2019-04-28T01:56:40.384Z,48.12
2019-04-28T01:57:40.160Z,48.12
2019-04-28T01:58:40.383Z,48.12
2019-04-28T01:59:40.364Z,48.12
2019-04-28T02:00:40.533Z,48.12
2019-04-28T02:01:40.065Z,48.12
2019-04-28T02:02:40.709Z,48.12
2019-04-28T02:03:40.446Z,48.12
2019-04-28T02:04:40.293Z,48.12
2019-04-28T02:05:40.556Z,48.12
2019-04-28T02:06:39.957Z,48.12
2019-04-28T02:07:40.721Z,48.12
2019-04-28T02:08:39.954Z,48.02
2019-04-28T02:09:39.669Z,48.02
2019-04-28T02:10:40.165Z,48.02
2019-04-28T02:11:41.198Z,48.02
2019-04-28T02:12:40.323Z,48.02
2019-04-28T02:13:39.928Z,48.02
2019-04-28T02:14:40.431Z,48.02
2019-04-28T02:15:40.060Z,48.02
2019-04-28T02:16:40.497Z,48.02
2019-04-28T02:17:40.163Z,48.02
2019-04-28T02:18:39.869Z,48.02
2019-04-28T02:19:41.030Z,47.92
2019-04-28T02:20:39.791Z,48.02
2019-04-28T02:21:39.618Z,47.92
2019-04-28T02:22:40.107Z,47.92
2019-04-28T02:23:39.751Z,47.92
2019-04-28T02:24:40.463Z,47.92
2019-04-28T02:25:39.872Z,47.92
2019-04-28T02:26:40.303Z,47.92
2019-04-28T02:27:40.091Z,47.92
2019-04-28T02:28:40.762Z,47.92
2019-04-28T02:29:41.350Z,47.92
2019-04-28T02:30:45.337Z,47.92
2019-04-28T02:31:41.944Z,47.92
2019-04-28T02:32:40.792Z,47.92
2019-04-28T02:33:40.785Z,47.92
2019-04-28T02:34:41.045Z,47.92
2019-04-28T02:35:41.853Z,47.92
2019-04-28T02:36:40.727Z,47.92
2019-04-28T02:37:40.645Z,47.92
2019-04-28T02:38:41.379Z,47.92
2019-04-28T02:39:40.955Z,47.82
2019-04-28T02:40:40.616Z,47.82
2019-04-28T02:41:41.108Z,47.82
2019-04-28T02:42:40.914Z,47.82
2019-04-28T02:43:40.961Z,47.82
2019-04-28T02:44:40.485Z,47.82
2019-04-28T02:45:41.239Z,47.82
2019-04-28T02:46:40.740Z,47.82
2019-04-28T02:47:41.849Z,47.82
2019-04-28T02:48:40.435Z,47.82
2019-04-28T02:49:40.608Z,47.82
2019-04-28T02:50:41.079Z,47.82
2019-04-28T02:51:40.729Z,47.82
2019-04-28T02:52:41.244Z,47.82
2019-04-28T02:53:40.873Z,47.82
2019-04-28T02:54:40.400Z,47.82
2019-04-28T02:55:41.190Z,47.82
2019-04-28T02:56:40.946Z,47.82
2019-04-28T02:57:40.611Z,47.82
2019-04-28T02:58:41.525Z,47.82
2019-04-28T02:59:44.081Z,47.82
2019-04-28T03:00:41.225Z,47.82
2019-04-28T03:01:40.960Z,47.72
2019-04-28T03:02:41.246Z,47.72
2019-04-28T03:03:40.868Z,47.72
2019-04-28T03:04:40.818Z,47.72
2019-04-28T03:05:41.275Z,47.72
2019-04-28T03:06:40.670Z,47.72
2019-04-28T03:07:41.008Z,47.72
2019-04-28T03:08:40.543Z,47.72
2019-04-28T03:09:40.339Z,47.72
2019-04-28T03:10:41.016Z,47.72
2019-04-28T03:11:42.750Z,47.72
2019-04-28T03:12:41.147Z,47.72
2019-04-28T03:13:41.110Z,47.72
2019-04-28T03:14:43.309Z,47.72
2019-04-28T03:15:41.282Z,47.72
2019-04-28T03:16:41.036Z,47.72
2019-04-28T03:17:40.645Z,47.72
2019-04-28T03:18:41.066Z,47.62
2019-04-28T03:19:41.457Z,47.72
2019-04-28T03:20:41.528Z,47.72
2019-04-28T03:21:41.402Z,47.62
2019-04-28T03:22:40.855Z,47.62
2019-04-28T03:23:40.520Z,47.62
2019-04-28T03:24:41.117Z,47.62
2019-04-28T03:25:40.735Z,47.62
2019-04-28T03:26:41.162Z,47.62
2019-04-28T03:27:40.498Z,47.62
2019-04-28T03:28:41.199Z,47.62
2019-04-28T03:29:40.433Z,47.62
2019-04-28T03:30:43.511Z,47.62
2019-04-28T03:32:06.101Z,47.62
2019-04-28T03:32:52.588Z,47.62
2019-04-28T03:33:47.425Z,47.62
2019-04-28T03:34:43.658Z,47.62
2019-04-28T03:35:43.299Z,47.62
2019-04-28T03:36:40.869Z,47.62
2019-04-28T03:37:41.168Z,47.62
2019-04-28T03:38:40.649Z,47.62
2019-04-28T03:39:40.528Z,47.62
2019-04-28T03:40:41.228Z,47.62
2019-04-28T03:41:40.538Z,47.62
2019-04-28T03:42:40.922Z,47.62
2019-04-28T03:43:40.598Z,47.62
2019-04-28T03:44:40.905Z,47.62
2019-04-28T03:45:40.895Z,47.52
2019-04-28T03:46:41.190Z,47.62
2019-04-28T03:47:40.743Z,47.62
2019-04-28T03:48:40.824Z,47.52
2019-04-28T03:49:40.583Z,47.52
2019-04-28T03:50:41.203Z,47.52
2019-04-28T03:51:40.609Z,47.62
2019-04-28T03:52:38.316Z,47.62
2019-04-28T03:53:40.800Z,47.62
2019-04-28T03:54:40.931Z,47.52
2019-04-28T03:55:41.333Z,47.52
2019-04-28T03:56:41.124Z,47.52
2019-04-28T03:57:41.017Z,47.52
2019-04-28T03:58:40.504Z,47.52
2019-04-28T03:59:41.315Z,47.52
2019-04-28T04:00:40.904Z,47.52
2019-04-28T04:01:53.047Z,47.52
2019-04-28T04:02:41.128Z,47.52
2019-04-28T04:03:38.193Z,47.52
2019-04-28T04:04:38.173Z,47.52
2019-04-28T04:05:40.526Z,47.52
2019-04-28T04:06:40.744Z,47.52
2019-04-28T04:07:42.853Z,47.52
2019-04-28T04:08:40.819Z,47.42
2019-04-28T04:09:38.123Z,47.52
2019-04-28T04:10:40.325Z,47.52
2019-04-28T04:11:38.124Z,47.52
2019-04-28T04:12:40.990Z,47.52
2019-04-28T04:13:38.083Z,47.52
2019-04-28T04:14:38.071Z,47.52
2019-04-28T04:15:38.055Z,47.52
2019-04-28T04:16:40.390Z,47.54
2019-04-28T04:17:38.031Z,47.54
2019-04-28T04:18:40.498Z,47.42
2019-04-28T04:19:40.519Z,47.52
2019-04-28T04:20:40.342Z,47.42
2019-04-28T04:21:40.560Z,47.52
2019-04-28T04:22:37.984Z,47.44
2019-04-28T04:23:40.905Z,47.42
2019-04-28T04:24:40.264Z,47.44
2019-04-28T04:25:37.948Z,47.42
2019-04-28T04:26:40.729Z,47.42
2019-04-28T04:27:40.473Z,47.42
2019-04-28T04:28:37.916Z,47.44
2019-04-28T04:29:37.918Z,47.44
2019-04-28T04:30:40.590Z,47.44
2019-04-28T04:31:37.878Z,47.44
2019-04-28T04:32:40.890Z,47.44
2019-04-28T04:33:40.748Z,47.44
2019-04-28T04:34:40.514Z,47.44
2019-04-28T04:35:37.837Z,47.44
2019-04-28T04:36:37.827Z,47.44
2019-04-28T04:37:40.381Z,47.42
2019-04-28T04:38:40.259Z,47.42
2019-04-28T04:39:40.754Z,47.42
2019-04-28T04:40:37.780Z,47.44
2019-04-28T04:41:42.881Z,47.44
2019-04-28T04:42:40.332Z,47.44
2019-04-28T04:43:37.748Z,47.44
2019-04-28T04:44:41.114Z,47.34
2019-04-28T04:45:40.274Z,47.44
2019-04-28T04:46:37.712Z,47.44
2019-04-28T04:47:40.445Z,47.34
2019-04-28T04:48:37.712Z,47.44
2019-04-28T04:49:37.682Z,47.34
2019-04-28T04:50:37.681Z,47.34
2019-04-28T04:51:37.659Z,47.34
2019-04-28T04:52:40.093Z,47.34
2019-04-28T04:53:37.639Z,47.34
2019-04-28T04:54:39.972Z,47.34
2019-04-28T04:55:37.611Z,47.34
2019-04-28T04:56:39.977Z,47.34
2019-04-28T04:57:37.592Z,47.32
2019-04-28T04:58:37.583Z,47.34
2019-04-28T04:59:39.975Z,47.34
2019-04-28T05:00:37.558Z,47.34
2019-04-28T05:01:37.547Z,47.34
2019-04-28T05:02:39.879Z,47.34
2019-04-28T05:03:37.543Z,47.34
2019-04-28T05:04:39.486Z,47.34
2019-04-28T05:05:37.533Z,47.34
2019-04-28T05:06:37.501Z,47.34
2019-04-28T05:07:37.486Z,47.34
2019-04-28T05:08:37.477Z,47.34
2019-04-28T05:09:39.182Z,47.34
2019-04-28T05:10:37.457Z,47.34
2019-04-28T05:11:39.805Z,47.34
2019-04-28T05:12:37.428Z,47.34
2019-04-28T05:13:37.431Z,47.34
2019-04-28T05:14:39.445Z,47.34
2019-04-28T05:15:37.398Z,47.34
2019-04-28T05:16:37.382Z,47.34
2019-04-28T05:17:37.388Z,47.34
2019-04-28T05:18:37.358Z,47.34
2019-04-28T05:19:37.348Z,47.34
2019-04-28T05:20:37.374Z,47.24
2019-04-28T05:21:37.331Z,47.34
2019-04-28T05:22:37.322Z,47.24
2019-04-28T05:23:37.306Z,47.34
2019-04-28T05:24:37.299Z,47.34
2019-04-28T05:25:37.281Z,47.34
2019-04-28T05:26:42.487Z,47.24
2019-04-28T05:27:39.914Z,47.34
2019-04-28T05:28:44.042Z,47.34
2019-04-28T05:29:39.798Z,47.34
2019-04-28T05:30:39.660Z,47.34
2019-04-28T05:31:40.134Z,47.24
2019-04-28T05:32:44.577Z,47.34
2019-04-28T05:33:39.561Z,47.24
2019-04-28T05:34:41.491Z,47.34
2019-04-28T05:35:39.714Z,47.34
2019-04-28T05:36:42.454Z,47.34
2019-04-28T05:37:40.314Z,47.24
2019-04-28T05:38:37.141Z,47.24
2019-04-28T05:39:38.621Z,47.24
2019-04-28T05:40:37.114Z,47.24
2019-04-28T05:41:37.105Z,47.24
2019-04-28T05:42:37.099Z,47.24
2019-04-28T05:43:37.112Z,47.24
2019-04-28T05:44:37.748Z,47.24
2019-04-28T05:45:37.064Z,47.34
2019-04-28T05:46:37.053Z,47.24
2019-04-28T05:47:37.042Z,47.24
2019-04-28T05:48:37.029Z,47.24
2019-04-28T05:49:37.038Z,47.24
2019-04-28T05:50:37.004Z,47.24
2019-04-28T05:51:37.011Z,47.24
2019-04-28T05:52:36.984Z,47.24
2019-04-28T05:53:36.972Z,47.24
2019-04-28T05:54:36.984Z,47.24
2019-04-28T05:55:36.956Z,47.24
2019-04-28T05:56:36.938Z,47.24
2019-04-28T05:57:36.933Z,47.24
2019-04-28T05:58:36.921Z,47.34
2019-04-28T05:59:36.909Z,47.34
2019-04-28T06:00:36.922Z,47.34
2019-04-28T06:01:36.886Z,47.34
2019-04-28T06:02:36.895Z,47.34
2019-04-28T06:03:36.865Z,47.34
2019-04-28T06:04:36.859Z,47.34
2019-04-28T06:05:36.841Z,47.34
2019-04-28T06:06:36.836Z,47.34
2019-04-28T06:07:36.830Z,47.34
2019-04-28T06:08:36.830Z,47.34
2019-04-28T06:09:36.801Z,47.34
2019-04-28T06:10:36.792Z,47.34
2019-04-28T06:11:36.778Z,47.34
2019-04-28T06:12:36.767Z,47.34
2019-04-28T06:13:36.776Z,47.34
2019-04-28T06:14:36.748Z,47.34
2019-04-28T06:15:36.753Z,47.34
2019-04-28T06:16:36.723Z,47.34
2019-04-28T06:17:36.708Z,47.34
2019-04-28T06:18:36.696Z,47.34
2019-04-28T06:19:36.692Z,47.34
2019-04-28T06:20:36.677Z,47.34
2019-04-28T06:21:36.686Z,47.34
2019-04-28T06:22:36.657Z,47.34
2019-04-28T06:23:36.645Z,47.34
2019-04-28T06:24:36.634Z,47.34
2019-04-28T06:25:36.717Z,47.34
2019-04-28T06:26:36.618Z,47.34
2019-04-28T06:27:36.597Z,47.34
2019-04-28T06:28:36.586Z,47.34
2019-04-28T06:29:36.583Z,47.34
2019-04-28T06:30:36.566Z,47.34
2019-04-28T06:31:36.576Z,47.34
2019-04-28T06:32:36.546Z,47.44
2019-04-28T06:33:36.531Z,47.34
2019-04-28T06:34:36.520Z,47.44
2019-04-28T06:35:36.515Z,47.34
2019-04-28T06:36:36.523Z,47.34
2019-04-28T06:37:36.495Z,47.34
2019-04-28T06:38:36.478Z,47.34
2019-04-28T06:39:36.471Z,47.44
2019-04-28T06:40:36.458Z,47.44
2019-04-28T06:41:36.446Z,47.34
2019-04-28T06:42:36.459Z,47.34
2019-04-28T06:43:36.430Z,47.44
2019-04-28T06:44:36.414Z,47.44
2019-04-28T06:45:36.399Z,47.34
2019-04-28T06:46:36.394Z,47.34
2019-04-28T06:47:36.394Z,47.34
2019-04-28T06:48:36.392Z,47.34
2019-04-28T06:49:36.354Z,47.34
2019-04-28T06:50:36.345Z,47.34
2019-04-28T06:51:36.333Z,47.34
2019-04-28T06:52:36.325Z,47.34
2019-04-28T06:53:36.336Z,47.34
2019-04-28T06:54:36.308Z,47.34
2019-04-28T06:55:36.348Z,47.34
2019-04-28T06:56:36.284Z,47.34
2019-04-28T06:57:36.272Z,47.24
2019-04-28T06:58:36.546Z,47.34
2019-04-28T06:59:36.257Z,47.34
2019-04-28T07:00:36.272Z,47.34
2019-04-28T07:01:36.223Z,47.34
2019-04-28T07:02:36.216Z,47.34
2019-04-28T07:03:36.200Z,47.34
2019-04-28T07:04:36.224Z,47.34
2019-04-28T07:05:36.178Z,47.34
2019-04-28T07:06:36.173Z,47.34
2019-04-28T07:07:36.165Z,47.34
2019-04-28T07:08:36.148Z,47.34
2019-04-28T07:09:36.136Z,47.34
2019-04-28T07:10:36.146Z,47.24
2019-04-28T07:11:36.113Z,47.24
2019-04-28T07:12:36.110Z,47.24
2019-04-28T07:13:36.095Z,47.24
2019-04-28T07:14:36.087Z,47.24
2019-04-28T07:15:36.078Z,47.24
2019-04-28T07:16:36.337Z,47.24
2019-04-28T07:17:36.054Z,47.24
2019-04-28T07:18:36.037Z,47.24
2019-04-28T07:19:36.030Z,47.24
2019-04-28T07:20:36.021Z,47.24
2019-04-28T07:21:36.006Z,47.24
2019-04-28T07:22:36.018Z,47.24
2019-04-28T07:23:35.991Z,47.24
2019-04-28T07:24:35.977Z,47.24
2019-04-28T07:25:35.964Z,47.24
2019-04-28T07:26:35.957Z,47.24
2019-04-28T07:27:35.942Z,47.14
2019-04-28T07:28:35.954Z,47.14
2019-04-28T07:29:35.921Z,47.24
2019-04-28T07:30:35.905Z,47.24
2019-04-28T07:31:35.901Z,47.24
2019-04-28T07:32:35.915Z,47.24
2019-04-28T07:33:36.470Z,47.24
2019-04-28T07:34:35.866Z,47.14
2019-04-28T07:35:35.850Z,47.14
2019-04-28T07:36:35.841Z,47.14
2019-04-28T07:37:35.834Z,47.14
2019-04-28T07:38:36.100Z,47.14
2019-04-28T07:39:35.806Z,47.14
2019-04-28T07:40:35.802Z,47.14
2019-04-28T07:41:35.791Z,47.14
2019-04-28T07:42:35.775Z,47.14
2019-04-28T07:43:35.766Z,47.14
2019-04-28T07:44:35.792Z,47.04
2019-04-28T07:45:35.747Z,47.04
2019-04-28T07:46:35.735Z,47.04
2019-04-28T07:47:35.721Z,47.04
2019-04-28T07:48:35.714Z,47.04
2019-04-28T07:49:35.705Z,47.04
2019-04-28T07:50:35.711Z,47.04
2019-04-28T07:51:35.684Z,47.04
2019-04-28T07:52:35.673Z,47.04
2019-04-28T07:53:35.660Z,47.04
2019-04-28T07:54:35.646Z,47.04
2019-04-28T07:55:35.644Z,47.04
2019-04-28T07:56:35.649Z,47.04
2019-04-28T07:57:35.613Z,47.04
2019-04-28T07:58:35.605Z,47.04
2019-04-28T07:59:35.598Z,47.04
2019-04-28T08:00:35.608Z,47.04
2019-04-28T08:01:35.575Z,47.04
2019-04-28T08:02:35.558Z,47.04
2019-04-28T08:03:48.447Z,47.04
2019-04-28T08:04:36.535Z,47.04
2019-04-28T08:05:35.529Z,47.04
2019-04-28T08:06:35.551Z,47.04
2019-04-28T08:07:35.504Z,46.94
2019-04-28T08:08:35.498Z,46.94
2019-04-28T08:09:35.481Z,46.94
2019-04-28T08:10:35.474Z,46.94
2019-04-28T08:11:35.460Z,46.94
2019-04-28T08:12:35.472Z,46.94
2019-04-28T08:13:35.443Z,46.94
2019-04-28T08:14:35.429Z,46.94
2019-04-28T08:15:35.417Z,46.94
2019-04-28T08:16:35.411Z,46.84
2019-04-28T08:17:35.406Z,46.84
2019-04-28T08:18:35.412Z,46.84
2019-04-28T08:19:35.373Z,46.84
2019-04-28T08:20:35.370Z,46.73
2019-04-28T08:21:35.357Z,46.73
2019-04-28T08:22:35.347Z,46.73
2019-04-28T08:23:46.587Z,46.73
2019-04-28T08:24:36.323Z,46.84
2019-04-28T08:25:35.310Z,46.84
2019-04-28T08:26:36.367Z,46.84
2019-04-28T08:27:35.290Z,46.84
2019-04-28T08:28:35.278Z,46.84
2019-04-28T08:29:35.297Z,46.84
2019-04-28T08:30:35.260Z,46.84
2019-04-28T08:31:35.242Z,46.84
2019-04-28T08:32:35.238Z,46.84
2019-04-28T08:33:35.227Z,46.84
2019-04-28T08:34:35.215Z,46.84
2019-04-28T08:35:35.235Z,46.84
2019-04-28T08:36:35.189Z,46.84
2019-04-28T08:37:35.183Z,46.84
2019-04-28T08:38:35.171Z,46.84
2019-04-28T08:39:35.160Z,46.84
2019-04-28T08:40:35.142Z,46.84
2019-04-28T08:41:35.157Z,46.73
2019-04-28T08:42:35.122Z,46.84
2019-04-28T08:43:35.114Z,46.84
2019-04-28T08:44:35.098Z,46.84
2019-04-28T08:45:35.121Z,46.84
2019-04-28T08:46:35.084Z,46.84
2019-04-28T08:47:35.077Z,46.84
2019-04-28T08:48:35.060Z,46.73
2019-04-28T08:49:35.047Z,46.84
2019-04-28T08:50:35.036Z,46.73
2019-04-28T08:51:35.047Z,46.73
2019-04-28T08:52:35.015Z,46.73
2019-04-28T08:53:35.007Z,46.73
2019-04-28T08:54:34.992Z,46.73
2019-04-28T08:55:34.986Z,46.73
2019-04-28T08:56:34.999Z,46.73
2019-04-28T08:57:34.963Z,46.73
2019-04-28T08:58:34.951Z,46.73
2019-04-28T08:59:34.936Z,46.73
2019-04-28T09:00:34.923Z,46.73
2019-04-28T09:01:34.917Z,46.73
2019-04-28T09:02:34.939Z,46.73
2019-04-28T09:03:34.889Z,46.73
2019-04-28T09:04:34.885Z,46.84
2019-04-28T09:05:34.877Z,46.73
2019-04-28T09:06:34.863Z,46.73
2019-04-28T09:07:34.852Z,46.73
2019-04-28T09:08:34.853Z,46.73
2019-04-28T09:09:34.825Z,46.73
2019-04-28T09:10:34.816Z,46.73
2019-04-28T09:11:34.826Z,46.73
2019-04-28T09:12:34.796Z,46.64
2019-04-28T09:13:34.798Z,46.64
2019-04-28T09:14:34.772Z,46.64
2019-04-28T09:15:34.759Z,46.64
2019-04-28T09:16:34.746Z,46.54
2019-04-28T09:17:34.740Z,46.54
2019-04-28T09:18:34.743Z,46.54
2019-04-28T09:19:34.721Z,46.54
2019-04-28T09:20:34.708Z,46.54
2019-04-28T09:21:34.693Z,46.54
2019-04-28T09:22:34.705Z,46.54
2019-04-28T09:23:34.701Z,46.54
2019-04-28T09:24:34.667Z,46.54
2019-04-28T09:25:34.654Z,46.54
2019-04-28T09:26:37.055Z,46.54
2019-04-28T09:27:34.632Z,46.54
2019-04-28T09:28:34.618Z,46.54
2019-04-28T09:29:34.877Z,46.54
2019-04-28T09:30:34.599Z,46.54
2019-04-28T09:31:34.585Z,46.54
2019-04-28T09:32:34.573Z,46.54
2019-04-28T09:33:34.563Z,46.54
2019-04-28T09:34:34.549Z,46.54
2019-04-28T09:35:34.562Z,46.54
2019-04-28T09:36:34.532Z,46.54
2019-04-28T09:37:34.517Z,46.54
2019-04-28T09:38:34.505Z,46.44
2019-04-28T09:39:34.498Z,46.44
2019-04-28T09:40:34.511Z,46.44
2019-04-28T09:41:34.482Z,46.44
2019-04-28T09:42:34.464Z,46.44
2019-04-28T09:43:34.453Z,46.54
2019-04-28T09:44:34.440Z,46.44
2019-04-28T09:45:34.434Z,46.44
2019-04-28T09:46:34.445Z,46.44
2019-04-28T09:47:34.410Z,46.44
2019-04-28T09:48:34.395Z,46.44
2019-04-28T09:49:34.390Z,46.44
2019-04-28T09:50:34.377Z,46.44
2019-04-28T09:51:34.366Z,46.44
2019-04-28T09:52:34.376Z,46.44
2019-04-28T09:53:34.344Z,46.44
2019-04-28T09:54:34.331Z,46.44
2019-04-28T09:55:34.322Z,46.44
2019-04-28T09:56:34.313Z,46.34
2019-04-28T09:57:34.298Z,46.34
2019-04-28T09:58:34.324Z,46.34
2019-04-28T09:59:34.276Z,46.34
2019-04-28T10:00:34.271Z,46.34
2019-04-28T10:01:34.255Z,46.34
2019-04-28T10:02:34.251Z,46.34
2019-04-28T10:03:34.234Z,46.34
2019-04-28T10:04:41.335Z,46.34
2019-04-28T10:05:35.206Z,46.34
2019-04-28T10:06:34.201Z,46.34
2019-04-28T10:07:34.185Z,46.34
2019-04-28T10:08:36.403Z,46.34
2019-04-28T10:09:34.189Z,46.34
2019-04-28T10:10:34.191Z,46.34
2019-04-28T10:11:34.143Z,46.23
2019-04-28T10:12:34.131Z,46.23
2019-04-28T10:13:34.122Z,46.23
2019-04-28T10:14:34.115Z,46.23
2019-04-28T10:15:34.099Z,46.23
2019-04-28T10:16:34.118Z,46.23
2019-04-28T10:17:34.081Z,46.23
2019-04-28T10:18:34.067Z,46.23
2019-04-28T10:19:34.070Z,46.34
2019-04-28T10:20:34.044Z,46.34
2019-04-28T10:21:34.039Z,46.34
2019-04-28T10:22:34.045Z,46.23
2019-04-28T10:23:34.009Z,46.23
2019-04-28T10:24:34.007Z,46.23
2019-04-28T10:25:33.992Z,46.23
2019-04-28T10:26:34.153Z,46.23
2019-04-28T10:27:33.968Z,46.23
2019-04-28T10:28:33.963Z,46.14
2019-04-28T10:29:33.945Z,46.03
2019-04-28T10:30:33.932Z,46.03
2019-04-28T10:31:33.927Z,45.94
2019-04-28T10:32:33.937Z,45.94
2019-04-28T10:33:33.922Z,45.83
2019-04-28T10:34:33.889Z,45.83
2019-04-28T10:35:33.883Z,45.83
2019-04-28T10:36:33.872Z,45.83
2019-04-28T10:37:33.860Z,45.83
2019-04-28T10:38:33.844Z,45.83
2019-04-28T10:39:33.858Z,45.83
2019-04-28T10:40:33.824Z,45.83
2019-04-28T10:41:33.816Z,45.83
2019-04-28T10:42:33.804Z,45.83
2019-04-28T10:43:33.790Z,45.73
2019-04-28T10:44:33.855Z,45.73
2019-04-28T10:45:33.769Z,45.73
2019-04-28T10:46:33.754Z,45.73
2019-04-28T10:47:33.742Z,45.73
2019-04-28T10:48:33.735Z,45.63
2019-04-28T10:49:33.723Z,45.63
2019-04-28T10:50:33.742Z,45.63
2019-04-28T10:51:33.702Z,45.63
2019-04-28T10:52:33.690Z,45.63
2019-04-28T10:53:33.679Z,45.63
2019-04-28T10:54:33.672Z,45.53
2019-04-28T10:55:33.657Z,45.63
2019-04-28T10:56:33.671Z,45.63
2019-04-28T10:57:33.634Z,45.63
2019-04-28T10:58:33.648Z,45.63
2019-04-28T10:59:33.613Z,45.63
2019-04-28T11:00:33.602Z,45.63
2019-04-28T11:01:33.592Z,45.53
2019-04-28T11:02:33.589Z,45.53
2019-04-28T11:03:33.570Z,45.53
2019-04-28T11:04:33.577Z,45.43
2019-04-28T11:05:33.554Z,45.43
2019-04-28T11:06:33.535Z,45.43
2019-04-28T11:07:33.528Z,45.53
2019-04-28T11:08:33.517Z,45.53
2019-04-28T11:09:33.771Z,45.43
2019-04-28T11:10:33.493Z,45.43
2019-04-28T11:11:33.481Z,45.53
2019-04-28T11:12:33.470Z,45.53
2019-04-28T11:13:33.458Z,45.53
2019-04-28T11:14:33.447Z,45.53
2019-04-28T11:15:33.455Z,45.53
2019-04-28T11:16:33.431Z,45.53
2019-04-28T11:17:33.421Z,45.53
2019-04-28T11:18:33.405Z,45.53
2019-04-28T11:19:33.391Z,45.63
2019-04-28T11:20:33.407Z,45.53
2019-04-28T11:21:33.374Z,45.53
2019-04-28T11:22:33.390Z,45.63
2019-04-28T11:23:33.352Z,45.63
2019-04-28T11:24:33.340Z,45.63
2019-04-28T11:25:33.328Z,45.63
2019-04-28T11:26:33.347Z,45.53
2019-04-28T11:27:33.304Z,45.53
2019-04-28T11:28:33.301Z,45.53
2019-04-28T11:29:33.282Z,45.53
2019-04-28T11:30:33.278Z,45.53
2019-04-28T11:31:33.265Z,45.53
2019-04-28T11:32:33.271Z,45.63
2019-04-28T11:33:33.238Z,45.63
2019-04-28T11:34:33.227Z,45.63
2019-04-28T11:35:33.222Z,45.63
2019-04-28T11:36:33.212Z,45.63
2019-04-28T11:37:33.203Z,45.63
2019-04-28T11:38:33.208Z,45.63
2019-04-28T11:39:33.181Z,45.63
2019-04-28T11:40:33.164Z,45.73
2019-04-28T11:41:33.154Z,45.63
2019-04-28T11:42:33.144Z,45.73
2019-04-28T11:43:33.157Z,45.63
2019-04-28T11:44:33.119Z,45.63
2019-04-28T11:45:33.115Z,45.63
2019-04-28T11:46:33.120Z,45.63
2019-04-28T11:47:33.083Z,45.63
2019-04-28T11:48:33.101Z,45.63
2019-04-28T11:49:33.069Z,45.63
2019-04-28T11:50:33.052Z,45.63
2019-04-28T11:51:33.047Z,45.63
2019-04-28T11:52:33.038Z,45.63
2019-04-28T11:53:33.026Z,45.63
2019-04-28T11:54:33.033Z,45.63
2019-04-28T11:55:32.997Z,45.63
2019-04-28T11:56:41.084Z,45.63
2019-04-28T11:57:33.981Z,45.63
2019-04-28T11:58:32.963Z,45.63
2019-04-28T11:59:32.978Z,45.63
2019-04-28T12:00:32.961Z,45.63
2019-04-28T12:01:32.934Z,45.63
2019-04-28T12:02:32.929Z,45.63
2019-04-28T12:03:32.912Z,45.63
2019-04-28T12:04:32.897Z,45.63
2019-04-28T12:05:34.610Z,45.63
2019-04-28T12:06:32.873Z,45.63
2019-04-28T12:07:32.889Z,45.53
2019-04-28T12:08:32.858Z,45.53
2019-04-28T12:09:32.849Z,45.53
2019-04-28T12:10:32.884Z,45.53
2019-04-28T12:11:32.824Z,45.53
2019-04-28T12:12:32.811Z,45.53
2019-04-28T12:13:32.798Z,45.43
2019-04-28T12:14:32.787Z,45.53
2019-04-28T12:15:32.801Z,45.43
2019-04-28T12:16:32.778Z,45.43
2019-04-28T12:17:34.990Z,45.43
2019-04-28T12:18:32.745Z,45.43
2019-04-28T12:19:32.737Z,45.43
2019-04-28T12:20:32.721Z,45.33
2019-04-28T12:21:32.733Z,45.33
2019-04-28T12:22:32.698Z,45.43
2019-04-28T12:23:32.687Z,45.43
2019-04-28T12:24:32.691Z,45.43
2019-04-28T12:25:32.685Z,45.43
2019-04-28T12:26:32.662Z,45.43
2019-04-28T12:27:32.661Z,45.33
2019-04-28T12:28:32.635Z,45.33
2019-04-28T12:29:32.648Z,45.33
2019-04-28T12:30:32.615Z,45.33
2019-04-28T12:31:32.621Z,45.33
2019-04-28T12:32:32.590Z,45.33
2019-04-28T12:33:32.581Z,45.33
2019-04-28T12:34:32.572Z,45.33
2019-04-28T12:35:32.563Z,45.33
2019-04-28T12:36:32.625Z,45.33
2019-04-28T12:37:32.535Z,45.33
2019-04-28T12:38:32.532Z,45.43
2019-04-28T12:39:32.518Z,45.33
2019-04-28T12:40:32.505Z,45.33
2019-04-28T12:41:32.489Z,45.33
2019-04-28T12:42:32.504Z,45.33
2019-04-28T12:43:32.481Z,45.33
2019-04-28T12:44:32.456Z,45.33
2019-04-28T12:45:35.367Z,45.33
2019-04-28T12:46:32.438Z,45.33
2019-04-28T12:47:32.443Z,45.43
2019-04-28T12:48:32.742Z,45.33
2019-04-28T12:49:32.430Z,45.33
2019-04-28T12:50:32.398Z,45.33
2019-04-28T12:51:32.380Z,45.33
2019-04-28T12:52:32.370Z,45.33